Harmony, Indiana
Current Conditions -  °F | °C
As of 6:53 AM on Tuesday 27 Jan 2015 (Local Time) from KHUF Reporting Station
Haze Haze  
Wind Chill: 29°   Ceiling: 400
Heat Index: 29°   Visibility: 4mi
Dew Point: 27°   Wind: 3mph
Humidity: 92%   Direction: 40°NE
Pressure: 29.99"   Gusts: NA
Location:  39.54°N, 87.11°W
Report Text: KHUF 271153Z 04003KT 4SM BR OVC004 M02/M03 A2999 RMK AO2 SNE16 SLP161 P0000 60000 T10171028 11017 21022 53021
Loading
Personal Weather Stations






























Interactive Weather Map New forecast layout! Learn more

10-Day Weather Forecast

Advertisements
Track Severe Weather on mobile